Time;durP1;ratioP1;P1;durP2;ratioP2;P2;SDS_P1;SDS_P2;PMS_P1;PMS_P2;Temp;Humidity;BMP_temperature;BMP_pressure;BME280_temperature;BME280_humidity;BME280_pressure;Samples;Min_cycle;Max_cycle;Signal;HPM_P1;HPM_P2
2022/06/22 00:02:15;;;;;;;9.52;4.93;;;;;;;16.74;66.62;101406.56;5008990;28;20026;-70
2022/06/22 00:05:12;;;;;;;7.35;5.00;;;;;;;16.82;65.82;101407.53;5008302;28;20045;-69
2022/06/22 00:07:42;;;;;;;12.23;5.40;;;;;;;16.71;67.22;101401.34;5007987;28;20056;-69
2022/06/22 00:10:21;;;;;;;9.57;5.22;;;;;;;16.68;67.14;101399.53;5004008;28;20030;-69
2022/06/22 00:12:54;;;;;;;11.55;5.10;;;;;;;16.68;67.22;101393.47;5006869;28;20033;-69
2022/06/22 00:15:33;;;;;;;11.32;5.70;;;;;;;16.67;67.45;101391.72;5004443;28;20041;-69
2022/06/22 00:18:01;;;;;;;7.97;4.80;;;;;;;16.62;68.29;101389.97;5010411;28;20027;-69
2022/06/22 00:20:32;;;;;;;7.45;5.20;;;;;;;16.59;67.85;101378.69;5011786;28;20051;-69
2022/06/22 00:23:13;;;;;;;10.18;5.00;;;;;;;16.63;67.89;101380.47;5009062;28;20108;-69
2022/06/22 00:25:40;;;;;;;10.35;5.38;;;;;;;16.52;68.65;101380.31;5010769;28;20542;-69
2022/06/22 00:28:35;;;;;;;7.90;5.40;;;;;;;16.60;68.20;101370.91;5008505;28;20037;-69
2022/06/22 00:31:21;;;;;;;11.27;5.55;;;;;;;16.58;68.37;101371.75;5010001;28;20030;-69
2022/06/22 00:34:10;;;;;;;10.50;5.90;;;;;;;16.46;68.84;101367.28;5007317;28;20037;-69
2022/06/22 00:36:44;;;;;;;7.55;5.55;;;;;;;16.41;69.89;101374.13;5006275;28;20445;-69
2022/06/22 00:39:25;;;;;;;8.93;5.10;;;;;;;16.38;69.56;101375.81;5010055;28;20034;-69
2022/06/22 00:42:14;;;;;;;11.00;5.55;;;;;;;16.39;70.44;101370.66;5006072;28;20057;-69
2022/06/22 00:44:44;;;;;;;10.82;5.78;;;;;;;16.33;70.83;101375.78;5010816;28;20029;-69
2022/06/22 00:47:36;;;;;;;9.77;5.40;;;;;;;16.34;70.50;101364.53;5011689;28;20033;-69
2022/06/22 00:50:14;;;;;;;12.32;5.72;;;;;;;16.34;70.49;101362.81;5008484;28;20147;-69
2022/06/22 00:52:39;;;;;;;11.13;6.07;;;;;;;16.23;71.60;101371.31;5009702;28;20033;-69
2022/06/22 00:55:21;;;;;;;9.93;5.95;;;;;;;16.25;71.51;101369.59;5016414;28;20050;-69
2022/06/22 00:57:53;;;;;;;9.77;6.35;;;;;;;16.19;72.08;101379.88;5007392;28;20026;-69
2022/06/22 01:00:22;;;;;;;11.88;5.97;;;;;;;16.24;72.31;101370.44;5008623;28;20029;-69
2022/06/22 01:02:56;;;;;;;10.70;6.55;;;;;;;16.24;71.94;101367.84;5008523;28;20045;-69
2022/06/22 01:05:32;;;;;;;11.60;6.10;;;;;;;16.20;72.00;101366.97;5008563;28;20053;-69
2022/06/22 01:08:00;;;;;;;11.95;5.90;;;;;;;16.21;72.26;101376.47;5008993;28;20045;-69
2022/06/22 01:10:32;;;;;;;8.47;5.93;;;;;;;16.26;72.45;101368.72;5010747;28;20515;-69
2022/06/22 01:13:18;;;;;;;11.13;5.95;;;;;;;16.21;72.69;101373.03;5007516;28;20025;-69
2022/06/22 01:15:53;;;;;;;9.18;5.57;;;;;;;16.24;72.48;101367.84;4999835;28;20046;-69
2022/06/22 01:18:31;;;;;;;9.82;6.30;;;;;;;16.19;72.39;101365.19;5006135;28;20026;-69
2022/06/22 01:21:24;;;;;;;12.35;6.38;;;;;;;16.14;72.59;101355.59;5007548;28;20061;-69
2022/06/22 01:24:13;;;;;;;11.32;6.03;;;;;;;16.14;72.61;101363.38;5009382;28;20132;-69
2022/06/22 01:27:16;;;;;;;13.38;6.57;;;;;;;16.13;72.47;101378.09;5012161;28;20038;-69
2022/06/22 01:29:51;;;;;;;10.32;5.97;;;;;;;16.15;72.78;101389.38;5003906;28;20072;-69
2022/06/22 01:32:25;;;;;;;8.98;5.97;;;;;;;16.11;73.62;101387.56;5008450;28;20430;-69
2022/06/22 01:34:56;;;;;;;10.50;6.35;;;;;;;16.07;73.52;101384.06;5011181;28;20096;-69
2022/06/22 01:37:25;;;;;;;10.80;6.57;;;;;;;16.06;74.04;101378.84;5012585;28;20033;-69
2022/06/22 01:39:51;;;;;;;11.48;6.50;;;;;;;16.11;73.32;101368.56;5007557;28;20026;-69
2022/06/22 01:42:40;;;;;;;9.35;7.00;;;;;;;16.13;73.14;101366.84;5010170;28;20025;-69
2022/06/22 01:45:13;;;;;;;10.75;6.68;;;;;;;15.99;73.85;101354.56;5006819;28;20044;-68
2022/06/22 01:47:51;;;;;;;14.07;6.50;;;;;;;15.93;74.40;101344.09;5007811;28;20076;-69
2022/06/22 01:50:31;;;;;;;11.68;6.70;;;;;;;15.92;74.54;101344.94;5012322;28;20107;-69
2022/06/22 01:53:13;;;;;;;11.38;6.32;;;;;;;15.93;73.94;101332.84;5009386;28;20412;-69
2022/06/22 01:55:59;;;;;;;9.15;6.30;;;;;;;15.81;74.28;101337.00;5010992;28;20049;-69
2022/06/22 01:58:30;;;;;;;12.52;6.78;;;;;;;15.88;74.28;101343.16;5004527;28;20026;-69
2022/06/22 02:01:10;;;;;;;12.63;6.53;;;;;;;15.88;74.63;101347.47;5009933;28;20433;-69
2022/06/22 02:03:43;;;;;;;12.25;6.95;;;;;;;15.82;75.03;101351.72;5006820;28;20080;-69
2022/06/22 02:09:08;;;;;;;10.90;7.20;;;;;;;15.77;75.07;101347.31;5006248;28;20117;-69
2022/06/22 02:11:39;;;;;;;10.85;7.30;;;;;;;15.73;75.69;101350.72;5004479;28;20037;-69
2022/06/22 02:14:18;;;;;;;12.02;6.65;;;;;;;15.80;74.94;101348.25;5007651;28;20512;-69
2022/06/22 02:16:56;;;;;;;9.93;7.18;;;;;;;15.66;75.81;101348.91;5012087;28;20033;-69
2022/06/22 02:19:21;;;;;;;8.38;6.60;;;;;;;15.68;76.29;101342.00;5010704;28;20520;-69
2022/06/22 02:21:53;;;;;;;14.38;7.18;;;;;;;15.74;75.54;101339.50;5011413;28;20104;-69
2022/06/22 02:24:27;;;;;;;12.35;7.28;;;;;;;15.73;75.80;101351.59;5005870;28;20057;-69
2022/06/22 02:27:22;;;;;;;10.98;7.00;;;;;;;15.79;75.11;101353.41;5009939;28;20480;-69
2022/06/22 02:29:53;;;;;;;10.93;7.05;;;;;;;15.74;75.83;101342.97;5006340;28;20091;-69
2022/06/22 02:32:30;;;;;;;12.82;6.72;;;;;;;15.75;75.66;101342.13;4991534;28;20030;-69
2022/06/22 02:34:56;;;;;;;11.13;7.10;;;;;;;15.67;76.43;101335.97;5005580;28;20030;-69
2022/06/22 02:37:26;;;;;;;12.07;7.20;;;;;;;15.69;76.46;101321.28;5012257;28;20112;-69
2022/06/22 02:39:58;;;;;;;11.15;7.28;;;;;;;15.75;75.91;101316.19;5009604;28;20028;-69
2022/06/22 02:45:10;;;;;;;12.70;7.78;;;;;;;15.68;76.12;101301.41;5007218;28;20121;-69
2022/06/22 02:48:01;;;;;;;11.75;7.78;;;;;;;15.68;75.98;101306.59;5010586;28;20026;-69
2022/06/22 02:50:51;;;;;;;13.05;7.55;;;;;;;15.59;75.91;101301.22;5002293;28;20038;-69
2022/06/22 02:53:28;;;;;;;13.90;7.88;;;;;;;15.60;76.23;101322.84;5001822;28;20034;-69
2022/06/22 02:55:55;;;;;;;12.35;7.30;;;;;;;15.57;76.55;101324.53;5007518;28;20392;-69
2022/06/22 02:58:27;;;;;;;14.60;7.47;;;;;;;15.55;76.49;101320.19;5005264;28;20073;-69
2022/06/22 03:00:53;;;;;;;10.77;7.20;;;;;;;15.53;76.55;101327.94;4986002;28;20026;-69
2022/06/22 03:03:19;;;;;;;12.10;7.90;;;;;;;15.50;76.83;101325.28;5006274;28;20049;-69
2022/06/22 03:05:48;;;;;;;11.88;7.38;;;;;;;15.51;76.84;101324.44;5005779;28;20480;-69
2022/06/22 03:08:18;;;;;;;12.82;7.85;;;;;;;15.47;76.77;101329.53;5009599;28;20034;-69
2022/06/22 03:10:49;;;;;;;11.50;7.43;;;;;;;15.53;76.54;101338.31;5005010;28;20030;-69
2022/06/22 03:13:18;;;;;;;11.85;7.88;;;;;;;15.48;77.14;101339.97;5008203;28;20030;-69
2022/06/22 03:15:45;;;;;;;12.30;7.53;;;;;;;15.46;77.06;101343.34;5005989;28;20060;-69
2022/06/22 03:18:23;;;;;;;12.73;7.60;;;;;;;15.51;76.65;101345.19;5006588;28;20450;-69
2022/06/22 03:21:02;;;;;;;13.82;7.50;;;;;;;15.47;76.62;101347.69;5005991;28;20037;-69
2022/06/22 03:23:45;;;;;;;10.23;7.20;;;;;;;15.50;76.00;101343.44;5007250;28;20034;-69
2022/06/22 03:26:15;;;;;;;14.05;7.85;;;;;;;15.43;76.76;101349.38;5007215;28;20117;-69
2022/06/22 03:28:50;;;;;;;12.63;7.85;;;;;;;15.45;76.51;101337.31;5006486;28;20034;-68
2022/06/22 03:31:47;;;;;;;12.10;7.32;;;;;;;15.51;75.92;101326.16;5007488;28;20026;-68
2022/06/22 03:34:20;;;;;;;12.48;7.72;;;;;;;15.45;76.61;101321.75;4983959;28;20037;-69
2022/06/22 03:37:40;;;;;;;12.10;8.02;;;;;;;15.51;75.84;101324.44;5008285;28;20465;-69
2022/06/22 03:40:24;;;;;;;9.77;7.78;;;;;;;15.45;76.15;101329.53;4926205;29;20072;-69
2022/06/22 03:42:54;;;;;;;9.23;7.72;;;;;;;15.34;76.90;101325.91;5008184;28;20079;-69
2022/06/22 03:45:38;;;;;;;12.60;7.88;;;;;;;15.38;76.22;101319.94;4995600;28;20053;-69
2022/06/22 03:48:11;;;;;;;12.52;8.75;;;;;;;15.32;77.02;101313.78;5010186;28;20029;-69
2022/06/22 03:50:52;;;;;;;14.18;8.35;;;;;;;15.33;77.42;101318.97;5007124;28;20065;-69
2022/06/22 03:53:31;;;;;;;13.95;8.02;;;;;;;15.33;77.04;101313.78;5010976;28;20030;-68
2022/06/22 03:56:01;;;;;;;12.50;8.02;;;;;;;15.29;77.85;101310.31;5014007;28;20033;-69
2022/06/22 03:58:27;;;;;;;12.00;8.75;;;;;;;15.20;77.87;101319.63;5012561;28;20473;-68
2022/06/22 04:00:54;;;;;;;12.68;8.43;;;;;;;15.17;78.18;101314.41;5008279;28;20084;-69
2022/06/22 04:03:20;;;;;;;14.82;9.20;;;;;;;15.20;78.12;101314.44;5007357;28;20029;-69
2022/06/22 04:05:50;;;;;;;14.95;8.75;;;;;;;15.24;78.05;101304.16;5009420;28;20046;-69
2022/06/22 04:08:24;;;;;;;12.25;8.77;;;;;;;15.25;78.24;101305.91;5012073;28;20374;-68
2022/06/22 04:10:52;;;;;;;13.27;8.38;;;;;;;15.25;78.32;101305.91;5003778;28;20025;-68
2022/06/22 04:13:26;;;;;;;16.55;9.18;;;;;;;15.25;78.20;101305.03;5012932;28;20451;-68
2022/06/22 04:15:58;;;;;;;15.65;8.90;;;;;;;15.22;78.45;101304.97;5006210;28;20037;-68
2022/06/22 04:18:29;;;;;;;13.27;9.30;;;;;;;15.19;78.66;101303.22;5005470;28;20096;-69
2022/06/22 04:21:07;;;;;;;13.70;9.07;;;;;;;15.21;78.85;101314.47;5003968;28;20034;-69
2022/06/22 04:23:57;;;;;;;14.45;8.95;;;;;;;15.22;78.79;101317.94;5012450;28;20071;-69
2022/06/22 04:26:30;;;;;;;16.60;9.27;;;;;;;15.21;78.99;101311.88;5004223;28;20475;-69
2022/06/22 04:29:16;;;;;;;15.48;9.13;;;;;;;15.25;78.37;101311.09;4986438;28;20109;-69
2022/06/22 04:31:54;;;;;;;15.13;9.55;;;;;;;15.27;78.78;101314.56;5006053;28;20026;-69
2022/06/22 04:34:36;;;;;;;12.70;8.93;;;;;;;15.31;78.41;101319.81;5003136;28;20665;-69
2022/06/22 04:37:07;;;;;;;17.13;9.27;;;;;;;15.28;79.22;101325.78;5007425;28;20037;-69
2022/06/22 04:39:45;;;;;;;16.30;9.98;;;;;;;15.31;79.20;101325.88;5005526;28;20026;-69
2022/06/22 04:42:11;;;;;;;18.90;10.57;;;;;;;15.33;79.15;101337.13;5000424;28;20116;-69
2022/06/22 04:44:46;;;;;;;15.52;9.70;;;;;;;15.34;79.13;101343.16;5000003;28;20224;-69
2022/06/22 04:47:18;;;;;;;12.52;9.98;;;;;;;15.39;79.24;101336.34;5000187;28;20033;-69
2022/06/22 04:50:03;;;;;;;15.75;10.43;;;;;;;15.43;79.07;101336.44;5005347;28;20116;-69
2022/06/22 04:52:43;;;;;;;14.38;9.63;;;;;;;15.47;79.01;101337.31;5002996;28;20036;-69
2022/06/22 04:55:14;;;;;;;;;;;;;;;15.63;77.60;101335.88;5004389;28;20105;-69
2022/06/22 04:57:43;;;;;;;14.70;10.05;;;;;;;15.45;79.32;101334.72;5002529;28;20394;-69
2022/06/22 05:00:16;;;;;;;17.77;11.25;;;;;;;15.46;79.35;101326.09;5011385;28;20040;-69
2022/06/22 05:02:44;;;;;;;12.60;10.02;;;;;;;15.49;79.56;101336.50;5005162;28;20040;-69
2022/06/22 05:05:20;;;;;;;19.27;10.83;;;;;;;15.51;79.81;101340.00;4963685;28;1110718;-69
2022/06/22 05:08:03;;;;;;;14.25;10.23;;;;;;;15.58;79.29;101343.53;5008822;28;20038;-69
2022/06/22 05:10:42;;;;;;;17.08;10.48;;;;;;;15.64;79.61;101354.03;5012738;28;20456;-69
2022/06/22 05:13:24;;;;;;;14.82;10.30;;;;;;;15.68;79.41;101360.16;5006886;28;20037;-69
2022/06/22 05:15:54;;;;;;;13.45;10.50;;;;;;;15.71;79.71;101367.97;5008770;28;20042;-69
2022/06/22 05:18:50;;;;;;;16.45;10.38;;;;;;;15.82;78.65;101367.28;5010414;28;20053;-69
2022/06/22 05:21:27;;;;;;;11.77;10.18;;;;;;;15.77;79.26;101365.47;4993976;28;20053;-69
2022/06/22 05:23:56;;;;;;;16.10;10.65;;;;;;;15.84;79.41;101369.06;5012361;28;20116;-69
2022/06/22 05:26:23;;;;;;;16.30;11.10;;;;;;;15.93;79.09;101364.84;5016256;28;20093;-69
2022/06/22 05:29:00;;;;;;;14.93;11.25;;;;;;;16.01;79.02;101364.94;5010122;28;20575;-69
2022/06/22 05:31:31;;;;;;;16.00;10.27;;;;;;;16.06;78.92;101363.28;4991472;28;20389;-69
2022/06/22 05:34:02;;;;;;;13.73;9.95;;;;;;;16.09;78.70;101364.22;5006782;28;20536;-69
2022/06/22 05:36:31;;;;;;;18.30;11.05;;;;;;;16.18;78.59;101370.38;5012649;28;20488;-69
2022/06/22 05:39:00;;;;;;;14.35;10.38;;;;;;;16.24;78.62;101370.44;5014159;28;20028;-69
2022/06/22 05:41:33;;;;;;;15.63;10.93;;;;;;;16.33;78.39;101366.25;4997722;28;20080;-70
2022/06/22 05:44:05;;;;;;;14.68;10.55;;;;;;;16.38;77.89;101374.09;5009734;28;20026;-69
2022/06/22 05:46:32;;;;;;;15.93;10.70;;;;;;;16.43;77.68;101362.03;5008195;28;20033;-70
2022/06/22 05:48:58;;;;;;;15.98;10.60;;;;;;;16.51;77.70;101365.63;5005518;28;20113;-71
2022/06/22 05:51:53;;;;;;;13.45;10.50;;;;;;;16.61;77.48;101362.25;5003797;28;20121;-70
2022/06/22 05:54:41;;;;;;;16.50;11.00;;;;;;;16.70;77.25;101363.22;5003663;28;20527;-70
2022/06/22 05:57:20;;;;;;;16.70;10.60;;;;;;;16.73;77.23;101360.69;5007584;28;20125;-70
2022/06/22 05:59:45;;;;;;;;;;;;;;;16.85;76.58;101359.06;5004847;28;20576;-70
2022/06/22 06:02:30;;;;;;;12.95;10.18;;;;;;;16.97;76.71;101376.50;5002387;28;19918;-70
2022/06/22 06:05:19;;;;;;;16.10;11.30;;;;;;;17.03;76.54;101383.50;5002605;28;20401;-70
2022/06/22 06:07:49;;;;;;;16.45;11.18;;;;;;;17.10;75.87;101386.16;4988000;28;20022;-70
2022/06/22 06:10:25;;;;;;;17.73;11.07;;;;;;;17.17;76.20;101389.72;4982163;28;20560;-68
2022/06/22 06:13:09;;;;;;;14.98;11.07;;;;;;;17.29;75.67;101386.34;4988750;28;20128;-68
2022/06/22 06:15:39;;;;;;;15.93;10.65;;;;;;;17.34;75.63;101397.66;4991441;28;20030;-68
2022/06/22 06:18:06;;;;;;;16.52;11.30;;;;;;;17.46;75.28;101391.69;4985241;28;20085;-68
2022/06/22 06:20:46;;;;;;;14.43;10.82;;;;;;;17.52;74.74;101391.72;4984206;28;20034;-68
2022/06/22 06:23:33;;;;;;;17.15;11.38;;;;;;;17.69;74.38;101395.34;4984736;28;20038;-68
2022/06/22 06:28:56;;;;;;;15.90;11.50;;;;;;;17.88;73.84;101411.97;4984848;28;20105;-68
2022/06/22 06:31:44;;;;;;;17.00;11.05;;;;;;;17.97;72.83;101395.56;4983980;28;20049;-68
2022/06/22 06:34:18;;;;;;;17.45;11.00;;;;;;;18.02;71.63;101386.03;4983980;28;20028;-68
2022/06/22 06:37:02;;;;;;;14.52;10.07;;;;;;;18.16;71.00;101389.59;4987753;28;20038;-68
2022/06/22 06:39:34;;;;;;;16.10;11.52;;;;;;;18.25;72.35;101391.38;4982023;28;20019;-69
2022/06/22 06:42:04;;;;;;;15.98;10.20;;;;;;;18.31;69.97;101392.25;4989628;28;20026;-69
2022/06/22 06:44:42;;;;;;;17.73;10.48;;;;;;;18.42;69.63;101384.50;4986093;28;20030;-69
2022/06/22 06:47:17;;;;;;;18.48;10.90;;;;;;;18.49;69.48;101389.75;4989094;28;20038;-71
2022/06/22 06:49:55;;;;;;;17.45;10.43;;;;;;;18.55;69.36;101383.69;4985677;28;20463;-69
2022/06/22 06:52:43;;;;;;;12.93;10.20;;;;;;;18.66;68.98;101386.34;4987517;28;20026;-68
2022/06/22 06:55:14;;;;;;;14.15;10.45;;;;;;;18.71;68.93;101385.53;4987908;28;20077;-68
2022/06/22 06:58:04;;;;;;;15.25;10.45;;;;;;;18.78;69.04;101375.97;4990104;28;20035;-70
2022/06/22 07:00:30;;;;;;;13.38;10.30;;;;;;;18.81;69.60;101375.09;4988683;28;20540;-69
2022/06/22 07:02:56;;;;;;;20.38;10.20;;;;;;;18.94;69.45;101371.69;4974105;28;20043;-69
2022/06/22 07:05:25;;;;;;;14.95;9.70;;;;;;;19.09;68.94;101373.44;4996148;28;20111;-69
2022/06/22 07:08:16;;;;;;;14.57;10.13;;;;;;;19.13;68.58;101365.63;5010483;28;20029;-69
2022/06/22 07:10:50;;;;;;;19.48;11.00;;;;;;;19.16;67.81;101356.91;5008947;28;20095;-69
2022/06/22 07:13:23;;;;;;;14.25;9.93;;;;;;;19.31;68.16;101361.28;5010949;28;20052;-69
2022/06/22 07:15:54;;;;;;;16.00;9.93;;;;;;;19.41;67.71;101368.22;5007672;28;20452;-69
2022/06/22 07:18:22;;;;;;;15.95;10.00;;;;;;;19.44;66.84;101370.84;5008582;28;20034;-69
2022/06/22 07:20:59;;;;;;;17.95;10.52;;;;;;;19.45;66.81;101359.53;5008487;28;20488;-68
2022/06/22 07:23:43;;;;;;;17.13;9.48;;;;;;;19.54;66.55;101354.31;5010477;28;20037;-69
2022/06/22 07:26:32;;;;;;;14.88;10.18;;;;;;;19.65;66.16;101352.56;5010460;28;20033;-69
2022/06/22 07:29:04;;;;;;;14.30;10.13;;;;;;;19.66;64.80;101351.72;5011643;28;20033;-68
2022/06/22 07:31:38;;;;;;;13.15;9.95;;;;;;;19.68;65.28;101355.19;5006176;28;20551;-68
2022/06/22 07:34:11;;;;;;;13.70;10.20;;;;;;;19.70;66.51;101343.00;5005896;28;20137;-69
2022/06/22 07:36:48;;;;;;;14.25;10.55;;;;;;;19.76;66.20;101340.38;5009949;28;20076;-69
2022/06/22 07:39:42;;;;;;;18.33;10.68;;;;;;;19.85;65.60;101331.69;5011219;28;20040;-68
2022/06/22 07:42:12;;;;;;;18.17;10.00;;;;;;;19.89;65.98;101330.78;5005952;28;20032;-69
2022/06/22 07:44:37;;;;;;;12.55;9.65;;;;;;;19.90;64.67;101323.81;5011144;28;20018;-69
2022/06/22 07:47:08;;;;;;;16.23;9.52;;;;;;;19.90;64.02;101329.03;4987525;28;20477;-69
2022/06/22 07:49:39;;;;;;;14.90;10.48;;;;;;;19.89;66.09;101338.63;5010205;28;20400;-69
2022/06/22 07:52:11;;;;;;;12.60;10.27;;;;;;;19.82;65.35;101345.59;5010570;28;20044;-69
2022/06/22 07:54:36;;;;;;;15.15;10.00;;;;;;;19.91;65.20;101346.47;5014755;28;20040;-69
2022/06/22 07:57:11;;;;;;;13.48;9.80;;;;;;;19.89;64.90;101349.06;4997156;28;20041;-69
2022/06/22 07:59:40;;;;;;;13.90;9.77;;;;;;;19.90;65.24;101352.53;5013182;28;20068;-68
2022/06/22 08:02:19;;;;;;;14.35;10.35;;;;;;;19.87;65.50;101345.59;5017016;28;20080;-69
2022/06/22 08:04:52;;;;;;;15.05;10.15;;;;;;;19.85;64.43;101349.09;5014079;28;20045;-69
2022/06/22 08:07:44;;;;;;;14.27;9.82;;;;;;;19.88;65.95;101341.25;5008436;28;20101;-69
2022/06/22 08:10:27;;;;;;;14.50;9.77;;;;;;;19.96;64.75;101344.69;5009299;28;20048;-69
2022/06/22 08:13:01;;;;;;;13.52;9.52;;;;;;;20.04;63.79;101348.16;5008240;28;20026;-68
2022/06/22 08:15:30;;;;;;;19.85;9.30;;;;;;;20.02;63.86;101349.88;5008026;28;20042;-68
2022/06/22 08:17:58;;;;;;;14.70;9.05;;;;;;;20.08;63.88;101344.66;5012804;28;20464;-68
2022/06/22 08:20:27;;;;;;;13.43;8.07;;;;;;;20.17;63.28;101351.59;5009373;28;20586;-69
2022/06/22 08:22:54;;;;;;;10.90;7.50;;;;;;;20.30;62.07;101350.66;5011677;28;20022;-69
2022/06/22 08:25:21;;;;;;;13.57;7.35;;;;;;;20.38;60.99;101356.72;5009113;28;20026;-69
2022/06/22 08:27:48;;;;;;;10.25;6.38;;;;;;;20.53;60.23;101350.59;4990779;28;20026;-69
2022/06/22 08:30:15;;;;;;;9.15;6.85;;;;;;;20.63;59.59;101360.13;4976629;28;20507;-69
2022/06/22 08:32:52;;;;;;;12.48;6.72;;;;;;;20.69;58.70;101357.47;5011335;28;20022;-68
2022/06/22 08:35:32;;;;;;;9.23;5.50;;;;;;;20.79;58.90;101359.13;5007566;28;20034;-69
2022/06/22 08:38:10;;;;;;;9.32;5.65;;;;;;;20.82;56.76;101358.28;5006398;28;20056;-68
2022/06/22 08:40:47;;;;;;;8.37;5.37;;;;;;;20.97;58.01;101357.28;5011738;28;20038;-69
2022/06/22 08:43:32;;;;;;;9.10;4.80;;;;;;;21.12;55.33;101359.81;5007970;28;20038;-69
2022/06/22 08:46:15;;;;;;;6.28;4.18;;;;;;;21.16;53.73;101366.72;5008408;28;20079;-68
2022/06/22 08:49:01;;;;;;;11.40;4.18;;;;;;;21.10;52.21;101357.19;5006942;28;20061;-69
2022/06/22 08:51:59;;;;;;;7.47;4.07;;;;;;;21.24;53.28;101359.72;4997175;28;20046;-68
2022/06/22 08:54:51;;;;;;;6.03;3.40;;;;;;;21.32;52.22;101365.78;5012129;28;20117;-68
2022/06/22 08:57:54;;;;;;;5.90;3.08;;;;;;;21.40;52.30;101358.72;5004323;28;20025;-69
2022/06/22 09:00:38;;;;;;;9.55;2.90;;;;;;;21.55;51.44;101357.72;4909182;29;20127;-69
2022/06/22 09:03:57;;;;;;;6.65;3.20;;;;;;;21.62;50.12;101350.69;4910410;29;20027;-69
2022/06/22 09:07:02;;;;;;;8.88;3.25;;;;;;;21.75;51.72;101346.19;4925368;29;20059;-69
2022/06/22 09:10:12;;;;;;;6.45;2.83;;;;;;;21.87;50.72;101343.44;4975172;28;20049;-69
2022/06/22 09:12:45;;;;;;;6.22;2.80;;;;;;;22.00;49.40;101341.53;4950187;28;20125;-67
2022/06/22 09:15:19;;;;;;;9.40;3.35;;;;;;;22.04;49.25;101351.97;5005954;28;20396;-68
2022/06/22 09:17:57;;;;;;;9.05;3.33;;;;;;;22.10;49.29;101349.31;5012923;28;20032;-67
2022/06/22 09:21:00;;;;;;;6.45;3.10;;;;;;;22.19;50.19;101350.94;5006365;28;20061;-68
2022/06/22 09:23:54;;;;;;;5.53;2.50;;;;;;;22.33;48.98;101354.28;5010577;28;20030;-67
2022/06/22 09:26:36;;;;;;;5.55;2.58;;;;;;;22.39;48.51;101353.34;4994262;28;20042;-67
2022/06/22 09:29:14;;;;;;;6.10;2.58;;;;;;;22.40;47.93;101358.56;5005720;28;20137;-69
2022/06/22 09:31:56;;;;;;;7.57;2.53;;;;;;;22.45;47.00;101359.38;5005129;28;20117;-69
2022/06/22 09:34:33;;;;;;;7.18;2.70;;;;;;;22.60;47.49;101370.53;5008507;28;20077;-69
2022/06/22 09:37:14;;;;;;;5.95;2.42;;;;;;;22.64;47.54;101366.97;5001810;28;20025;-69
2022/06/22 09:40:15;;;;;;;7.40;2.28;;;;;;;22.67;46.21;101372.16;5013256;28;20030;-69
2022/06/22 09:43:30;;;;;;;7.50;2.20;;;;;;;22.75;46.60;101376.44;5009320;28;20018;-69
2022/06/22 09:46:13;;;;;;;6.40;2.38;;;;;;;22.87;46.27;101371.91;5010160;28;20053;-69
2022/06/22 09:49:26;;;;;;;7.07;3.13;;;;;;;22.89;46.42;101368.38;5008301;28;20022;-68
2022/06/22 09:52:19;;;;;;;8.77;2.38;;;;;;;23.02;47.70;101376.94;5006472;28;20125;-69
2022/06/22 09:58:11;;;;;;;5.35;2.90;;;;;;;23.16;43.94;101367.09;5007497;28;20408;-68
2022/06/22 10:00:46;;;;;;;4.93;2.58;;;;;;;23.23;45.57;101363.47;5005967;28;20492;-69
2022/06/22 10:03:48;;;;;;;4.80;2.53;;;;;;;23.34;46.03;101360.66;5007448;28;20025;-69
2022/06/22 10:06:17;;;;;;;4.72;2.40;;;;;;;23.39;44.04;101356.22;5005070;28;20053;-69
2022/06/22 10:08:59;;;;;;;6.63;2.05;;;;;;;23.50;44.31;101358.66;5011725;28;20030;-69
2022/06/22 10:11:47;;;;;;;7.60;2.38;;;;;;;23.62;43.44;101368.13;5008846;28;20033;-69
2022/06/22 10:14:40;;;;;;;5.60;2.60;;;;;;;23.68;43.79;101360.13;5009181;28;20033;-69
2022/06/22 10:17:31;;;;;;;4.47;2.53;;;;;;;23.74;43.90;101354.75;5007223;28;20036;-69
2022/06/22 10:20:17;;;;;;;5.95;2.38;;;;;;;23.78;41.98;101359.03;5008436;28;20021;-69
2022/06/22 10:22:48;;;;;;;8.00;2.20;;;;;;;23.85;42.76;101341.44;4997137;28;20049;-69
2022/06/22 10:25:35;;;;;;;4.05;2.10;;;;;;;23.91;41.76;101349.19;5010585;28;20032;-69
2022/06/22 10:28:31;;;;;;;5.10;2.10;;;;;;;24.02;41.82;101341.94;5010637;28;20041;-69
2022/06/22 10:31:27;;;;;;;7.05;2.15;;;;;;;24.05;42.08;101341.91;5008713;28;20032;-69
2022/06/22 10:34:00;;;;;;;6.15;2.50;;;;;;;24.11;41.84;101339.16;5004518;28;20123;-69
2022/06/22 10:36:59;;;;;;;7.63;2.50;;;;;;;24.17;41.80;101332.91;4992869;28;20037;-69
2022/06/22 10:39:36;;;;;;;4.40;2.30;;;;;;;24.18;40.51;101339.88;5006218;28;20156;-69
2022/06/22 10:46:01;;;;;;;6.18;2.15;;;;;;;24.45;40.72;101335.81;5009995;28;20044;-69
2022/06/22 10:48:53;;;;;;;5.97;2.20;;;;;;;24.53;41.75;101326.03;5000163;28;20150;-69
2022/06/22 10:51:56;;;;;;;3.97;1.90;;;;;;;24.56;41.23;101323.31;4990472;28;20044;-69
2022/06/22 10:54:36;;;;;;;5.85;2.13;;;;;;;24.59;40.21;101323.25;5004403;28;20065;-69
2022/06/22 10:57:23;;;;;;;5.75;1.67;;;;;;;24.55;39.95;101311.94;4987279;28;20037;-69
2022/06/22 11:00:14;;;;;;;4.03;1.60;;;;;;;24.68;39.35;101319.53;5007115;28;20362;-69
2022/06/22 11:03:09;;;;;;;5.32;1.70;;;;;;;24.71;38.11;101330.00;5003042;28;20060;-69
2022/06/22 11:05:48;;;;;;;9.07;2.05;;;;;;;24.66;38.69;101332.72;5002118;28;20057;-68
2022/06/22 11:08:23;;;;;;;4.25;1.58;;;;;;;24.61;37.99;101322.31;5008671;28;20040;-69
2022/06/22 11:10:58;;;;;;;4.28;1.52;;;;;;;24.55;36.30;101329.47;5004614;28;20026;-68
2022/06/22 11:13:51;;;;;;;5.32;2.10;;;;;;;24.53;36.69;101320.75;4987899;28;20088;-69
2022/06/22 11:16:44;;;;;;;4.72;1.77;;;;;;;24.53;37.70;101323.41;5007648;28;20036;-69
2022/06/22 11:19:15;;;;;;;6.65;1.80;;;;;;;24.50;36.71;101332.19;5006236;28;20037;-68
2022/06/22 11:22:02;;;;;;;5.88;2.00;;;;;;;24.54;36.15;101328.59;5007655;28;20029;-68
2022/06/22 11:25:06;;;;;;;7.85;1.73;;;;;;;24.66;37.36;101329.22;5004924;28;20045;-68
2022/06/22 11:31:06;;;;;;;4.60;1.35;;;;;;;24.67;35.77;101318.66;5007200;28;20669;-69
2022/06/22 11:33:58;;;;;;;3.85;1.38;;;;;;;24.69;36.14;101318.63;5012516;28;20167;-68
2022/06/22 11:36:35;;;;;;;10.52;1.30;;;;;;;24.69;36.84;101310.75;5004778;28;20033;-68
2022/06/22 11:39:12;;;;;;;4.47;1.50;;;;;;;24.67;35.64;101317.81;5013070;28;20084;-69
2022/06/22 11:42:00;;;;;;;4.65;1.45;;;;;;;24.66;35.24;101322.22;5005378;28;20638;-69
2022/06/22 11:44:40;;;;;;;8.20;1.83;;;;;;;24.64;35.28;101323.16;5008474;28;20044;-68
2022/06/22 11:47:21;;;;;;;5.35;1.90;;;;;;;24.67;36.32;101316.03;5005418;28;20033;-68
2022/06/22 11:50:03;;;;;;;7.65;1.67;;;;;;;24.74;36.75;101329.91;5008042;28;20029;-68
2022/06/22 11:52:40;;;;;;;4.93;1.42;;;;;;;24.76;35.45;101326.38;5010855;28;20037;-69
2022/06/22 11:55:21;;;;;;;6.63;1.38;;;;;;;24.85;35.94;101325.28;5008461;28;20034;-68
2022/06/22 11:57:58;;;;;;;6.05;1.55;;;;;;;24.81;35.58;101324.50;5012121;28;20384;-69
2022/06/22 12:01:12;;;;;;;2.50;1.23;;;;;;;24.92;37.48;101324.22;4998524;28;20026;-69
2022/06/22 12:04:15;;;;;;;3.75;1.20;;;;;;;24.91;34.65;101322.50;4999792;28;20045;-69
2022/06/22 12:06:49;;;;;;;3.05;1.20;;;;;;;24.87;31.94;101312.94;5004817;28;20586;-68
2022/06/22 12:09:46;;;;;;;2.38;1.10;;;;;;;24.88;33.76;101312.06;5007116;28;20033;-68
2022/06/22 12:12:48;;;;;;;4.45;1.40;;;;;;;24.92;34.68;101313.69;5001217;28;20044;-68
2022/06/22 12:15:30;;;;;;;3.65;1.30;;;;;;;24.96;33.46;101314.50;4995690;28;20072;-68
2022/06/22 12:18:08;;;;;;;3.97;1.10;;;;;;;24.93;33.02;101299.63;5013406;28;20034;-68
2022/06/22 12:20:48;;;;;;;3.10;1.17;;;;;;;24.99;32.73;101302.13;5009945;28;20116;-68
2022/06/22 12:23:40;;;;;;;5.05;1.50;;;;;;;25.02;33.32;101298.56;5010736;28;20030;-68
2022/06/22 12:26:44;;;;;;;4.13;1.50;;;;;;;25.00;32.04;101300.38;5007354;28;20026;-68
2022/06/22 12:29:30;;;;;;;5.47;1.08;;;;;;;25.05;32.89;101288.84;4976215;28;20129;-68
2022/06/22 12:32:13;;;;;;;3.13;1.30;;;;;;;25.06;33.58;101287.09;4970902;28;20033;-68
2022/06/22 12:34:50;;;;;;;5.07;1.13;;;;;;;25.02;32.64;101281.00;5010221;28;20026;-68